createdAt,value
2023-07-30T00:00:40.671Z,19.07
2023-07-30T00:02:41.169Z,19.08
2023-07-30T00:04:41.473Z,19.02
2023-07-30T00:06:41.735Z,19.04
2023-07-30T00:08:42.056Z,18.98
2023-07-30T00:10:42.324Z,18.96
2023-07-30T00:12:42.628Z,18.96
2023-07-30T00:14:42.904Z,18.95
2023-07-30T00:16:43.217Z,18.92
2023-07-30T00:18:43.486Z,18.88
2023-07-30T00:20:43.793Z,18.88
2023-07-30T00:22:44.098Z,18.86
2023-07-30T00:24:44.927Z,18.90
2023-07-30T00:26:45.196Z,18.88
2023-07-30T00:28:45.481Z,18.92
2023-07-30T00:30:45.758Z,18.90
2023-07-30T00:32:46.180Z,18.93
2023-07-30T00:34:46.457Z,18.96
2023-07-30T00:36:46.697Z,18.96
2023-07-30T00:38:47.022Z,18.95
2023-07-30T00:40:52.177Z,18.98
2023-07-30T00:42:52.443Z,18.99
2023-07-30T00:44:52.745Z,18.99
2023-07-30T00:46:53.145Z,18.98
2023-07-30T00:48:53.449Z,18.96
2023-07-30T00:50:53.767Z,18.96
2023-07-30T00:52:54.027Z,18.93
2023-07-30T00:54:54.392Z,18.95
2023-07-30T00:56:54.695Z,18.93
2023-07-30T00:58:54.969Z,18.88
2023-07-30T01:00:55.338Z,18.90
2023-07-30T01:02:55.691Z,18.92
2023-07-30T01:04:56.016Z,18.96
2023-07-30T01:06:56.300Z,18.96
2023-07-30T01:08:56.592Z,18.92
2023-07-30T01:10:56.908Z,18.96
2023-07-30T01:12:57.196Z,18.96
2023-07-30T01:14:57.510Z,18.93
2023-07-30T01:16:57.793Z,18.95
2023-07-30T01:18:58.052Z,18.96
2023-07-30T01:20:58.346Z,18.95
2023-07-30T01:22:58.636Z,18.95
2023-07-30T01:24:58.931Z,18.95
2023-07-30T01:26:59.201Z,18.93
2023-07-30T01:28:59.483Z,18.96
2023-07-30T01:30:59.849Z,18.95
2023-07-30T01:33:00.172Z,18.93
2023-07-30T01:35:00.480Z,18.98
2023-07-30T01:37:00.760Z,18.92
2023-07-30T01:39:01.043Z,18.95
2023-07-30T01:41:01.361Z,18.98
2023-07-30T01:43:01.635Z,18.98
2023-07-30T01:45:01.943Z,18.98
2023-07-30T01:47:02.215Z,19.00
2023-07-30T01:49:02.556Z,18.99
2023-07-30T01:51:02.887Z,19.02
2023-07-30T01:53:03.157Z,19.00
2023-07-30T01:55:03.477Z,19.00
2023-07-30T01:57:03.721Z,18.99
2023-07-30T01:59:04.008Z,18.99
2023-07-30T02:01:04.301Z,19.00
2023-07-30T02:03:04.744Z,19.04
2023-07-30T02:05:05.094Z,18.98
2023-07-30T02:07:05.401Z,18.99
2023-07-30T02:09:05.680Z,19.00
2023-07-30T02:11:05.986Z,18.98
2023-07-30T02:13:06.250Z,19.02
2023-07-30T02:15:06.580Z,18.99
2023-07-30T02:17:06.834Z,19.00
2023-07-30T02:19:07.133Z,19.02
2023-07-30T02:21:07.444Z,19.02
2023-07-30T02:23:07.718Z,19.04
2023-07-30T02:25:08.049Z,19.07
2023-07-30T02:27:08.372Z,19.04
2023-07-30T02:29:08.633Z,19.07
2023-07-30T02:31:09.000Z,19.08
2023-07-30T02:33:09.294Z,19.08
2023-07-30T02:35:09.612Z,19.11
2023-07-30T02:37:09.868Z,19.09
2023-07-30T02:39:10.173Z,19.09
2023-07-30T02:41:10.455Z,19.14
2023-07-30T02:43:10.787Z,19.11
2023-07-30T02:45:11.057Z,19.12
2023-07-30T02:47:11.366Z,19.12
2023-07-30T02:49:11.659Z,19.09
2023-07-30T02:51:11.946Z,19.11
2023-07-30T02:53:12.249Z,19.08
2023-07-30T02:55:12.520Z,19.08
2023-07-30T02:57:12.830Z,19.07
2023-07-30T02:59:13.096Z,19.00
2023-07-30T03:01:13.439Z,18.98
2023-07-30T03:03:13.835Z,18.96
2023-07-30T03:05:14.210Z,18.98
2023-07-30T03:07:14.494Z,18.92
2023-07-30T03:09:14.822Z,18.93
2023-07-30T03:11:15.085Z,18.90
2023-07-30T03:13:15.385Z,18.92
2023-07-30T03:15:15.677Z,18.88
2023-07-30T03:17:15.948Z,18.92
2023-07-30T03:19:16.254Z,18.90
2023-07-30T03:21:16.554Z,18.93
2023-07-30T03:23:16.853Z,18.90
2023-07-30T03:25:17.161Z,18.89
2023-07-30T03:27:17.448Z,18.90
2023-07-30T03:29:17.739Z,18.89
2023-07-30T03:31:18.066Z,18.88
2023-07-30T03:33:18.429Z,18.95
2023-07-30T03:35:18.709Z,18.90
2023-07-30T03:37:19.046Z,18.89
2023-07-30T03:39:19.295Z,18.88
2023-07-30T03:41:19.624Z,18.84
2023-07-30T03:43:19.880Z,18.84
2023-07-30T03:45:20.159Z,18.88
2023-07-30T03:47:20.457Z,18.84
2023-07-30T03:49:20.724Z,18.86
2023-07-30T03:51:25.907Z,18.88
2023-07-30T03:53:26.229Z,18.88
2023-07-30T03:55:26.466Z,18.83
2023-07-30T03:57:26.798Z,18.83
2023-07-30T03:59:27.088Z,18.84
2023-07-30T04:01:27.418Z,18.81
2023-07-30T04:03:27.786Z,18.88
2023-07-30T04:05:28.154Z,18.84
2023-07-30T04:07:28.455Z,18.88
2023-07-30T04:09:28.740Z,18.88
2023-07-30T04:11:29.025Z,18.90
2023-07-30T04:13:29.325Z,18.89
2023-07-30T04:15:29.636Z,18.92
2023-07-30T04:17:29.965Z,18.90
2023-07-30T04:19:30.252Z,18.98
2023-07-30T04:21:30.552Z,18.95
2023-07-30T04:23:30.837Z,18.93
2023-07-30T04:25:31.139Z,18.96
2023-07-30T04:27:33.181Z,18.95
2023-07-30T04:29:34.999Z,18.93
2023-07-30T04:31:35.684Z,18.90
2023-07-30T04:33:36.149Z,18.90
2023-07-30T04:35:36.477Z,18.95
2023-07-30T04:37:36.787Z,18.92
2023-07-30T04:39:37.092Z,18.92
2023-07-30T04:41:37.842Z,18.93
2023-07-30T04:43:38.153Z,18.96
2023-07-30T04:45:38.486Z,18.98
2023-07-30T04:47:38.736Z,18.93
2023-07-30T04:49:39.060Z,18.98
2023-07-30T04:51:39.642Z,18.95
2023-07-30T04:53:40.210Z,18.95
2023-07-30T04:55:40.502Z,18.95
2023-07-30T04:57:40.833Z,18.96
2023-07-30T04:59:41.103Z,18.96
2023-07-30T05:01:41.608Z,18.93
2023-07-30T05:03:41.970Z,19.02
2023-07-30T05:05:42.214Z,19.00
2023-07-30T05:07:42.538Z,19.04
2023-07-30T05:09:42.914Z,19.02
2023-07-30T05:11:43.184Z,19.07
2023-07-30T05:13:43.497Z,19.07
2023-07-30T05:15:43.783Z,19.08
2023-07-30T05:17:44.092Z,19.08
2023-07-30T05:19:44.390Z,19.08
2023-07-30T05:21:44.684Z,19.12
2023-07-30T05:23:44.971Z,19.08
2023-07-30T05:25:45.260Z,19.08
2023-07-30T05:27:45.581Z,19.00
2023-07-30T05:29:47.519Z,19.00
2023-07-30T05:31:49.321Z,19.02
2023-07-30T05:33:49.591Z,19.07
2023-07-30T05:35:49.887Z,19.08
2023-07-30T05:37:50.157Z,19.12
2023-07-30T05:39:50.483Z,19.12
2023-07-30T05:41:50.756Z,19.12
2023-07-30T05:43:51.625Z,19.15
2023-07-30T05:45:52.020Z,19.16
2023-07-30T05:47:52.369Z,19.19
2023-07-30T05:49:52.671Z,19.26
2023-07-30T05:51:52.967Z,19.27
2023-07-30T05:53:53.246Z,19.31
2023-07-30T05:55:53.541Z,19.37
2023-07-30T05:57:53.827Z,19.40
2023-07-30T05:59:54.112Z,19.44
2023-07-30T06:01:54.494Z,19.40
2023-07-30T06:03:54.808Z,19.49
2023-07-30T06:05:55.200Z,19.56
2023-07-30T06:07:55.446Z,19.71
2023-07-30T06:09:55.767Z,19.79
2023-07-30T06:11:56.015Z,19.94
2023-07-30T06:13:56.297Z,20.09
2023-07-30T06:15:56.667Z,20.24
2023-07-30T06:17:56.961Z,20.50
2023-07-30T06:19:57.230Z,20.56
2023-07-30T06:21:57.575Z,20.67
2023-07-30T06:23:57.811Z,20.69
2023-07-30T06:25:58.146Z,20.72
2023-07-30T06:27:58.481Z,20.78
2023-07-30T06:29:58.773Z,20.88
2023-07-30T06:31:59.073Z,20.96
2023-07-30T06:33:59.348Z,20.97
2023-07-30T06:35:59.645Z,20.93
2023-07-30T06:37:59.976Z,20.87
2023-07-30T06:40:00.327Z,20.72
2023-07-30T06:42:00.574Z,20.63
2023-07-30T06:44:01.619Z,20.59
2023-07-30T06:46:01.876Z,20.58
2023-07-30T06:48:02.171Z,20.55
2023-07-30T06:50:02.492Z,20.60
2023-07-30T06:52:02.785Z,20.60
2023-07-30T06:54:03.076Z,20.60
2023-07-30T06:56:03.352Z,20.66
2023-07-30T06:58:03.637Z,20.70
2023-07-30T07:00:03.956Z,20.75
2023-07-30T07:02:04.259Z,20.81
2023-07-30T07:04:04.582Z,20.78
2023-07-30T07:06:04.846Z,20.85
2023-07-30T07:08:05.126Z,20.90
2023-07-30T07:10:05.468Z,20.96
2023-07-30T07:12:05.798Z,20.92
2023-07-30T07:14:06.087Z,20.92
2023-07-30T07:16:06.427Z,20.80
2023-07-30T07:18:06.760Z,20.85
2023-07-30T07:20:07.073Z,20.87
2023-07-30T07:22:07.359Z,20.81
2023-07-30T07:24:07.633Z,20.78
2023-07-30T07:26:07.989Z,20.72
2023-07-30T07:28:08.316Z,20.66
2023-07-30T07:30:08.580Z,20.43
2023-07-30T07:32:08.922Z,20.14
2023-07-30T07:34:10.118Z,19.99
2023-07-30T07:36:10.376Z,19.96
2023-07-30T07:38:10.646Z,19.96
2023-07-30T07:40:10.975Z,20.00
2023-07-30T07:42:11.233Z,20.02
2023-07-30T07:44:11.532Z,20.07
2023-07-30T07:46:11.877Z,20.10
2023-07-30T07:48:12.114Z,20.11
2023-07-30T07:50:12.438Z,20.18
2023-07-30T07:52:12.797Z,20.18
2023-07-30T07:54:13.074Z,20.22
2023-07-30T07:56:13.365Z,20.37
2023-07-30T07:58:13.661Z,20.51
2023-07-30T08:00:13.974Z,20.69
2023-07-30T08:02:19.127Z,20.82
2023-07-30T08:04:19.522Z,21.03
2023-07-30T08:06:21.571Z,21.27
2023-07-30T08:08:21.873Z,21.42
2023-07-30T08:10:22.158Z,21.43
2023-07-30T08:12:22.429Z,21.52
2023-07-30T08:14:22.717Z,21.55
2023-07-30T08:16:23.087Z,21.60
2023-07-30T08:18:23.359Z,21.73
2023-07-30T08:20:23.643Z,21.77
2023-07-30T08:22:23.950Z,22.02
2023-07-30T08:24:24.263Z,22.08
2023-07-30T08:26:24.542Z,22.26
2023-07-30T08:28:24.848Z,22.39
2023-07-30T08:30:25.138Z,22.28
2023-07-30T08:32:25.447Z,22.20
2023-07-30T08:34:25.730Z,22.08
2023-07-30T08:36:26.067Z,22.08
2023-07-30T08:38:26.365Z,22.20
2023-07-30T08:40:26.689Z,22.17
2023-07-30T08:42:26.973Z,22.07
2023-07-30T08:44:27.268Z,21.96
2023-07-30T08:46:27.592Z,21.85
2023-07-30T08:48:27.858Z,21.70
2023-07-30T08:50:28.654Z,21.70
2023-07-30T08:52:28.932Z,21.82
2023-07-30T08:54:29.206Z,21.91
2023-07-30T08:56:29.504Z,22.06
2023-07-30T08:58:29.784Z,22.08
2023-07-30T09:00:30.086Z,22.22
2023-07-30T09:02:30.406Z,22.32
2023-07-30T09:04:30.690Z,22.47
2023-07-30T09:06:30.987Z,22.66
2023-07-30T09:08:31.279Z,22.90
2023-07-30T09:10:31.602Z,23.02
2023-07-30T09:12:31.920Z,23.20
2023-07-30T09:14:32.169Z,23.25
2023-07-30T09:16:32.485Z,23.10
2023-07-30T09:18:32.801Z,23.23
2023-07-30T09:20:33.071Z,23.18
2023-07-30T09:22:33.348Z,23.18
2023-07-30T09:24:33.665Z,23.28
2023-07-30T09:26:33.920Z,23.40
2023-07-30T09:28:34.306Z,23.43
2023-07-30T09:30:34.642Z,23.37
2023-07-30T09:32:35.045Z,23.48
2023-07-30T09:34:35.377Z,23.50
2023-07-30T09:36:35.657Z,23.20
2023-07-30T09:38:35.929Z,23.32
2023-07-30T09:40:36.220Z,23.39
2023-07-30T09:42:36.498Z,23.34
2023-07-30T09:44:36.759Z,23.46
2023-07-30T09:46:37.060Z,23.69
2023-07-30T09:48:37.345Z,23.87
2023-07-30T09:50:37.629Z,24.05
2023-07-30T09:52:37.910Z,24.10
2023-07-30T09:54:38.182Z,23.93
2023-07-30T09:56:38.484Z,23.77
2023-07-30T09:58:38.769Z,23.71
2023-07-30T10:00:39.039Z,23.81
2023-07-30T10:02:39.374Z,23.58
2023-07-30T10:04:39.721Z,23.31
2023-07-30T10:06:40.671Z,23.10
2023-07-30T10:08:40.940Z,23.02
2023-07-30T10:10:41.231Z,22.83
2023-07-30T10:12:41.518Z,22.80
2023-07-30T10:14:41.816Z,22.76
2023-07-30T10:16:42.116Z,22.84
2023-07-30T10:18:42.484Z,22.96
2023-07-30T10:20:42.731Z,23.12
2023-07-30T10:22:43.013Z,23.28
2023-07-30T10:24:44.183Z,23.48
2023-07-30T10:26:44.463Z,23.34
2023-07-30T10:28:44.778Z,23.39
2023-07-30T10:30:45.101Z,23.47
2023-07-30T10:32:45.354Z,23.66
2023-07-30T10:34:45.624Z,23.78
2023-07-30T10:36:45.924Z,23.74
2023-07-30T10:38:46.218Z,23.76
2023-07-30T10:40:46.513Z,23.80
2023-07-30T10:42:46.790Z,24.06
2023-07-30T10:44:47.083Z,24.08
2023-07-30T10:46:47.403Z,24.01
2023-07-30T10:48:47.675Z,23.83
2023-07-30T10:50:47.972Z,23.86
2023-07-30T10:52:48.327Z,23.86
2023-07-30T10:54:48.648Z,23.66
2023-07-30T10:56:48.892Z,23.86
2023-07-30T10:58:49.212Z,23.91
2023-07-30T11:00:49.471Z,24.10
2023-07-30T11:02:49.892Z,24.38
2023-07-30T11:04:50.145Z,24.43
2023-07-30T11:06:50.464Z,24.60
2023-07-30T11:08:50.726Z,24.36
2023-07-30T11:10:51.000Z,24.23
2023-07-30T11:12:51.305Z,23.99
2023-07-30T11:14:51.571Z,23.76
2023-07-30T11:16:51.910Z,23.47
2023-07-30T11:18:52.228Z,23.18
2023-07-30T11:20:52.503Z,23.00
2023-07-30T11:22:52.828Z,23.23
2023-07-30T11:24:53.130Z,23.40
2023-07-30T11:26:53.475Z,23.43
2023-07-30T11:28:53.737Z,23.34
2023-07-30T11:30:54.023Z,23.09
2023-07-30T11:32:54.395Z,22.90
2023-07-30T11:34:54.713Z,22.87
2023-07-30T11:36:54.964Z,22.84
2023-07-30T11:38:55.296Z,22.93
2023-07-30T11:40:55.566Z,23.08
2023-07-30T11:42:55.880Z,23.24
2023-07-30T11:44:56.152Z,23.41
2023-07-30T11:46:56.452Z,23.77
2023-07-30T11:48:56.716Z,24.02
2023-07-30T11:50:57.021Z,24.51
2023-07-30T11:52:57.468Z,24.80
2023-07-30T11:54:57.781Z,24.58
2023-07-30T11:56:58.127Z,24.39
2023-07-30T11:58:58.412Z,24.33
2023-07-30T12:00:58.742Z,23.95
2023-07-30T12:02:59.067Z,23.68
2023-07-30T12:05:11.176Z,23.88
2023-07-30T12:07:04.541Z,24.01
2023-07-30T12:09:04.855Z,23.95
2023-07-30T12:11:05.130Z,24.13
2023-07-30T12:13:05.437Z,24.39
2023-07-30T12:15:05.754Z,24.42
2023-07-30T12:17:06.012Z,24.16
2023-07-30T12:19:07.108Z,24.01
2023-07-30T12:21:07.414Z,24.03
2023-07-30T12:23:07.706Z,23.83
2023-07-30T12:25:07.987Z,23.74
2023-07-30T12:27:08.318Z,23.63
2023-07-30T12:29:08.586Z,23.43
2023-07-30T12:31:08.881Z,23.27
2023-07-30T12:33:09.155Z,23.51
2023-07-30T12:35:09.443Z,23.99
2023-07-30T12:37:09.754Z,24.05
2023-07-30T12:39:10.046Z,23.83
2023-07-30T12:41:10.320Z,23.76
2023-07-30T12:43:10.617Z,23.55
2023-07-30T12:45:10.904Z,23.32
2023-07-30T12:47:11.249Z,23.23
2023-07-30T12:49:11.512Z,23.25
2023-07-30T12:51:11.789Z,23.46
2023-07-30T12:53:12.081Z,23.74
2023-07-30T12:55:12.344Z,23.84
2023-07-30T12:57:12.676Z,23.77
2023-07-30T12:59:12.932Z,23.76
2023-07-30T13:01:13.261Z,23.96
2023-07-30T13:03:13.662Z,24.10
2023-07-30T13:05:14.074Z,23.91
2023-07-30T13:07:14.326Z,23.87
2023-07-30T13:09:14.621Z,23.76
2023-07-30T13:11:14.892Z,23.77
2023-07-30T13:13:15.175Z,23.76
2023-07-30T13:15:15.487Z,23.74
2023-07-30T13:17:15.748Z,23.73
2023-07-30T13:19:16.048Z,23.65
2023-07-30T13:21:16.348Z,23.61
2023-07-30T13:23:16.593Z,23.51
2023-07-30T13:25:16.909Z,23.43
2023-07-30T13:27:17.165Z,23.44
2023-07-30T13:29:17.496Z,23.36
2023-07-30T13:31:17.798Z,23.20
2023-07-30T13:33:18.114Z,23.32
2023-07-30T13:35:18.440Z,23.59
2023-07-30T13:37:18.793Z,23.65
2023-07-30T13:39:19.065Z,23.62
2023-07-30T13:41:19.387Z,23.48
2023-07-30T13:43:19.653Z,23.39
2023-07-30T13:45:19.949Z,23.25
2023-07-30T13:47:20.362Z,23.20
2023-07-30T13:49:20.700Z,23.15
2023-07-30T13:51:20.992Z,23.27
2023-07-30T13:53:21.280Z,23.40
2023-07-30T13:55:21.581Z,23.54
2023-07-30T13:57:21.882Z,23.74
2023-07-30T13:59:22.155Z,23.95
2023-07-30T14:01:22.438Z,23.88
2023-07-30T14:03:22.757Z,23.92
2023-07-30T14:05:23.089Z,24.17
2023-07-30T14:07:23.433Z,24.28
2023-07-30T14:09:23.683Z,24.10
2023-07-30T14:11:23.977Z,24.05
2023-07-30T14:13:24.305Z,23.93
2023-07-30T14:15:24.768Z,24.13
2023-07-30T14:17:25.125Z,24.23
2023-07-30T14:19:25.394Z,24.43
2023-07-30T14:21:25.716Z,24.86
2023-07-30T14:23:26.005Z,24.98
2023-07-30T14:25:26.290Z,24.84
2023-07-30T14:27:26.587Z,25.14
2023-07-30T14:29:26.920Z,24.96
2023-07-30T14:31:27.168Z,25.11
2023-07-30T14:33:27.519Z,25.29
2023-07-30T14:35:27.832Z,25.16
2023-07-30T14:37:28.131Z,24.55
2023-07-30T14:39:28.421Z,24.69
2023-07-30T14:41:28.726Z,25.18
2023-07-30T14:43:29.070Z,25.55
2023-07-30T14:45:29.361Z,25.48
2023-07-30T14:47:29.675Z,25.23
2023-07-30T14:49:29.927Z,24.98
2023-07-30T14:51:30.215Z,24.81
2023-07-30T14:53:30.514Z,24.99
2023-07-30T14:55:30.973Z,24.96
2023-07-30T14:57:31.260Z,25.03
2023-07-30T14:59:31.517Z,25.36
2023-07-30T15:01:31.870Z,25.55
2023-07-30T15:03:32.169Z,25.47
2023-07-30T15:05:32.481Z,25.08
2023-07-30T15:07:32.756Z,25.14
2023-07-30T15:09:33.054Z,25.01
2023-07-30T15:11:33.359Z,24.81
2023-07-30T15:13:33.672Z,24.74
2023-07-30T15:15:33.962Z,24.68
2023-07-30T15:17:34.317Z,24.81
2023-07-30T15:19:34.580Z,25.04
2023-07-30T15:21:34.895Z,25.36
2023-07-30T15:23:40.071Z,25.68
2023-07-30T15:25:40.385Z,25.88
2023-07-30T15:27:40.686Z,25.75
2023-07-30T15:29:40.988Z,25.53
2023-07-30T15:31:41.311Z,25.08
2023-07-30T15:33:41.600Z,25.13
2023-07-30T15:35:41.874Z,25.50
2023-07-30T15:37:42.187Z,25.84
2023-07-30T15:39:42.492Z,26.28
2023-07-30T15:41:42.753Z,26.43
2023-07-30T15:43:43.080Z,26.09
2023-07-30T15:45:43.392Z,26.10
2023-07-30T15:47:43.771Z,26.29
2023-07-30T15:49:44.008Z,26.21
2023-07-30T15:51:44.294Z,25.80
2023-07-30T15:53:44.603Z,25.38
2023-07-30T15:55:44.885Z,24.96
2023-07-30T15:57:45.166Z,24.50
2023-07-30T15:59:45.488Z,24.29
2023-07-30T16:01:45.760Z,24.03
2023-07-30T16:03:46.061Z,23.91
2023-07-30T16:05:46.359Z,23.69
2023-07-30T16:07:47.037Z,23.63
2023-07-30T16:09:48.231Z,23.77
2023-07-30T16:11:48.501Z,23.86
2023-07-30T16:13:48.857Z,24.51
2023-07-30T16:15:49.169Z,25.36
2023-07-30T16:17:49.472Z,25.48
2023-07-30T16:19:49.742Z,26.36
2023-07-30T16:21:50.019Z,26.85
2023-07-30T16:23:50.297Z,26.40
2023-07-30T16:25:50.619Z,25.41
2023-07-30T16:27:50.894Z,25.11
2023-07-30T16:29:51.217Z,25.68
2023-07-30T16:31:51.497Z,25.81
2023-07-30T16:33:51.799Z,25.41
2023-07-30T16:35:52.140Z,24.78
2023-07-30T16:37:52.431Z,24.69
2023-07-30T16:39:52.734Z,24.35
2023-07-30T16:41:53.030Z,24.10
2023-07-30T16:43:53.347Z,23.66
2023-07-30T16:45:53.637Z,23.39
2023-07-30T16:47:53.971Z,23.15
2023-07-30T16:49:54.245Z,23.10
2023-07-30T16:51:54.520Z,23.00
2023-07-30T16:53:54.818Z,22.98
2023-07-30T16:55:55.150Z,23.02
2023-07-30T16:57:55.413Z,23.02
2023-07-30T16:59:55.742Z,22.96
2023-07-30T17:01:56.027Z,22.91
2023-07-30T17:03:56.403Z,22.90
2023-07-30T17:05:58.501Z,23.00
2023-07-30T17:07:58.747Z,23.39
2023-07-30T17:09:59.093Z,23.40
2023-07-30T17:11:59.389Z,23.39
2023-07-30T17:13:59.690Z,23.21
2023-07-30T17:16:00.024Z,23.12
2023-07-30T17:18:00.408Z,23.03
2023-07-30T17:20:01.454Z,22.88
2023-07-30T17:22:02.906Z,22.81
2023-07-30T17:24:03.178Z,22.72
2023-07-30T17:26:03.466Z,22.68
2023-07-30T17:28:03.797Z,22.59
2023-07-30T17:30:04.039Z,22.57
2023-07-30T17:32:04.391Z,22.59
2023-07-30T17:34:04.750Z,22.51
2023-07-30T17:36:05.058Z,22.53
2023-07-30T17:38:05.315Z,22.47
2023-07-30T17:40:05.664Z,22.53
2023-07-30T17:42:05.946Z,22.55
2023-07-30T17:44:06.224Z,22.59
2023-07-30T17:46:06.537Z,22.53
2023-07-30T17:48:06.930Z,22.45
2023-07-30T17:50:07.211Z,22.43
2023-07-30T17:52:07.528Z,22.38
2023-07-30T17:54:07.835Z,22.29
2023-07-30T17:56:08.078Z,22.28
2023-07-30T17:58:08.348Z,22.23
2023-07-30T18:00:08.696Z,22.18
2023-07-30T18:02:08.967Z,22.11
2023-07-30T18:04:09.269Z,22.06
2023-07-30T18:06:09.631Z,22.04
2023-07-30T18:08:09.914Z,22.00
2023-07-30T18:10:10.214Z,21.95
2023-07-30T18:12:10.470Z,21.95
2023-07-30T18:14:10.798Z,21.85
2023-07-30T18:16:11.117Z,21.77
2023-07-30T18:18:14.147Z,21.77
2023-07-30T18:20:14.826Z,21.75
2023-07-30T18:22:15.107Z,21.67
2023-07-30T18:24:15.447Z,21.62
2023-07-30T18:26:15.731Z,21.60
2023-07-30T18:28:16.020Z,21.52
2023-07-30T18:30:16.303Z,21.46
2023-07-30T18:32:16.629Z,21.39
2023-07-30T18:34:16.920Z,21.35
2023-07-30T18:36:17.213Z,21.32
2023-07-30T18:38:17.506Z,21.27
2023-07-30T18:40:17.802Z,21.22
2023-07-30T18:42:18.069Z,21.20
2023-07-30T18:44:18.376Z,21.14
2023-07-30T18:46:18.742Z,21.11
2023-07-30T18:48:19.008Z,21.03
2023-07-30T18:50:19.299Z,20.97
2023-07-30T18:52:19.569Z,20.95
2023-07-30T18:54:19.872Z,20.87
2023-07-30T18:56:20.152Z,20.84
2023-07-30T18:58:20.507Z,20.82
2023-07-30T19:00:25.623Z,20.80
2023-07-30T19:02:25.945Z,20.75
2023-07-30T19:04:26.180Z,20.69
2023-07-30T19:06:26.551Z,20.65
2023-07-30T19:08:26.818Z,20.60
2023-07-30T19:10:27.099Z,20.58
2023-07-30T19:12:27.411Z,20.56
2023-07-30T19:14:27.672Z,20.48
2023-07-30T19:16:27.978Z,20.47
2023-07-30T19:18:28.261Z,20.40
2023-07-30T19:20:28.622Z,20.36
2023-07-30T19:22:28.862Z,20.34
2023-07-30T19:24:29.190Z,20.26
2023-07-30T19:26:29.466Z,20.22
2023-07-30T19:28:29.792Z,20.13
2023-07-30T19:30:30.156Z,20.09
2023-07-30T19:32:30.529Z,20.00
2023-07-30T19:34:30.857Z,19.92
2023-07-30T19:36:31.178Z,19.81
2023-07-30T19:38:31.423Z,19.71
2023-07-30T19:40:31.741Z,19.64
2023-07-30T19:42:32.025Z,19.54
2023-07-30T19:44:32.406Z,19.54
2023-07-30T19:46:32.734Z,19.48
2023-07-30T19:48:34.360Z,19.47
2023-07-30T19:50:39.468Z,19.45
2023-07-30T19:52:40.285Z,19.41
2023-07-30T19:54:40.626Z,19.37
2023-07-30T19:56:41.323Z,19.34
2023-07-30T19:58:41.904Z,19.31
2023-07-30T20:00:47.074Z,19.27
2023-07-30T20:02:47.386Z,19.22
2023-07-30T20:04:47.656Z,19.19
2023-07-30T20:06:48.044Z,19.18
2023-07-30T20:08:48.314Z,19.12
2023-07-30T20:10:48.683Z,19.12
2023-07-30T20:12:49.001Z,19.12
2023-07-30T20:14:49.307Z,19.14
2023-07-30T20:16:49.688Z,19.12
2023-07-30T20:18:49.973Z,19.08
2023-07-30T20:20:50.248Z,19.04
2023-07-30T20:22:50.512Z,19.07
2023-07-30T20:24:50.817Z,18.99
2023-07-30T20:26:51.131Z,18.95
2023-07-30T20:28:51.460Z,18.96
2023-07-30T20:30:51.748Z,18.95
2023-07-30T20:32:52.133Z,18.95
2023-07-30T20:34:52.559Z,18.99
2023-07-30T20:36:52.849Z,19.00
2023-07-30T20:38:53.148Z,19.02
2023-07-30T20:40:53.444Z,19.07
2023-07-30T20:42:53.766Z,19.07
2023-07-30T20:44:54.016Z,19.11
2023-07-30T20:46:54.373Z,19.12
2023-07-30T20:48:54.668Z,19.15
2023-07-30T20:50:54.953Z,19.18
2023-07-30T20:52:55.273Z,19.18
2023-07-30T20:54:55.610Z,19.16
2023-07-30T20:56:55.929Z,19.18
2023-07-30T20:58:56.742Z,19.19
2023-07-30T21:00:57.446Z,19.19
2023-07-30T21:02:57.820Z,19.18
2023-07-30T21:04:58.126Z,19.18
2023-07-30T21:06:58.450Z,19.18
2023-07-30T21:08:58.702Z,19.21
2023-07-30T21:10:59.080Z,19.24
2023-07-30T21:12:59.389Z,19.24
2023-07-30T21:14:59.667Z,19.29
2023-07-30T21:17:00.015Z,19.30
2023-07-30T21:19:00.316Z,19.30
2023-07-30T21:21:00.629Z,19.34
2023-07-30T21:23:00.903Z,19.37
2023-07-30T21:25:01.200Z,19.34
2023-07-30T21:27:01.487Z,19.40
2023-07-30T21:29:01.791Z,19.45
2023-07-30T21:31:02.112Z,19.47
2023-07-30T21:33:02.494Z,19.47
2023-07-30T21:35:02.858Z,19.47
2023-07-30T21:37:03.188Z,19.48
2023-07-30T21:39:04.169Z,19.51
2023-07-30T21:41:04.497Z,19.51
2023-07-30T21:43:04.761Z,19.56
2023-07-30T21:45:05.102Z,19.63
2023-07-30T21:47:05.419Z,19.63
2023-07-30T21:49:05.717Z,19.66
2023-07-30T21:51:06.014Z,19.67
2023-07-30T21:53:06.314Z,19.66
2023-07-30T21:55:06.573Z,19.66
2023-07-30T21:57:06.933Z,19.69
2023-07-30T21:59:07.212Z,19.70
2023-07-30T22:01:07.586Z,19.69
2023-07-30T22:03:08.000Z,19.71
2023-07-30T22:05:08.426Z,19.69
2023-07-30T22:07:08.706Z,19.66
2023-07-30T22:09:09.028Z,19.62
2023-07-30T22:11:09.322Z,19.58
2023-07-30T22:13:09.592Z,19.56
2023-07-30T22:15:09.966Z,19.54
2023-07-30T22:17:10.220Z,19.52
2023-07-30T22:19:10.547Z,19.44
2023-07-30T22:21:10.838Z,19.40
2023-07-30T22:23:11.100Z,19.36
2023-07-30T22:25:11.431Z,19.33
2023-07-30T22:27:11.709Z,19.30
2023-07-30T22:29:12.047Z,19.27
2023-07-30T22:31:12.353Z,19.22
2023-07-30T22:33:12.607Z,19.22
2023-07-30T22:35:12.976Z,19.18
2023-07-30T22:37:13.250Z,19.14
2023-07-30T22:39:13.532Z,19.09
2023-07-30T22:41:13.870Z,19.04
2023-07-30T22:43:14.162Z,19.00
2023-07-30T22:45:14.469Z,18.96
2023-07-30T22:47:14.762Z,18.93
2023-07-30T22:49:15.103Z,18.90
2023-07-30T22:51:15.396Z,18.86
2023-07-30T22:53:15.662Z,18.84
2023-07-30T22:55:15.960Z,18.78
2023-07-30T22:57:16.253Z,18.80
2023-07-30T22:59:16.516Z,18.75
2023-07-30T23:01:16.844Z,18.80
2023-07-30T23:03:17.185Z,18.78
2023-07-30T23:05:17.515Z,18.80
2023-07-30T23:07:17.807Z,18.75
2023-07-30T23:09:18.107Z,18.75
2023-07-30T23:11:18.399Z,18.74
2023-07-30T23:13:18.705Z,18.75
2023-07-30T23:15:18.991Z,18.75
2023-07-30T23:17:19.295Z,18.73
2023-07-30T23:19:19.633Z,18.71
2023-07-30T23:21:19.940Z,18.73
2023-07-30T23:23:20.250Z,18.68
2023-07-30T23:25:20.527Z,18.70
2023-07-30T23:27:20.802Z,18.71
2023-07-30T23:29:21.108Z,18.66
2023-07-30T23:31:21.419Z,18.68
2023-07-30T23:33:21.738Z,18.63
2023-07-30T23:35:22.001Z,18.62
2023-07-30T23:37:22.309Z,18.62
2023-07-30T23:39:22.620Z,18.60
2023-07-30T23:41:22.899Z,18.58
2023-07-30T23:43:23.193Z,18.56
2023-07-30T23:45:23.556Z,18.59
2023-07-30T23:47:23.789Z,18.56
2023-07-30T23:49:24.084Z,18.53
2023-07-30T23:51:24.377Z,18.56
2023-07-30T23:53:24.672Z,18.53
2023-07-30T23:55:24.996Z,18.50
2023-07-30T23:57:25.280Z,18.52
2023-07-30T23:59:25.563Z,18.50
